Terminal Aerodrome Forecast
Issued by NWS Tuscon, AZ

Home | Current Version | Previous Version | Text Only | Print | Product List | Glossary On
Versions: 1 2 3 4 5 6 7 8 9 10 11 12 13 14 15
074
FTUS45 KTWC 201253 AAA
TAFTUS
TAF AMD
KTUS 201253Z 2013/2112 25006KT P6SM SKC
     FM201600 30008KT P6SM FEW070
     FM201900 31013G20KT P6SM FEW080
     FM210200 29007KT P6SM SKC
     FM210800 14007KT P6SM SKC=

USA.gov is the U.S. government's official web portal to all federal, state and local government web resources and services.